Time;durP1;ratioP1;P1;durP2;ratioP2;P2;SDS_P1;SDS_P2;PMS_P1;PMS_P2;Temp;Humidity;BMP_temperature;BMP_pressure;BME280_temperature;BME280_humidity;BME280_pressure;Samples;Min_cycle;Max_cycle;Signal;HPM_P1;HPM_P2
2023/09/27 00:02:15;;;;;;;16.40;13.40;;;13.90;99.90;;;13.60;100.00;98417.78;5088416;28;20462;-78
2023/09/27 00:04:42;;;;;;;17.17;13.33;;;13.80;99.90;;;13.44;100.00;98415.66;5088863;28;20450;-81
2023/09/27 00:07:10;;;;;;;15.90;14.07;;;13.70;99.90;;;13.38;100.00;98419.22;5082139;28;20461;-78
2023/09/27 00:09:39;;;;;;;16.57;13.67;;;13.60;99.90;;;13.46;100.00;98421.69;5088526;28;20457;-77
2023/09/27 00:12:07;;;;;;;17.00;15.23;;;13.60;99.90;;;13.58;100.00;98425.31;5081968;28;20491;-78
2023/09/27 00:14:34;;;;;;;17.43;14.03;;;13.70;99.90;;;13.55;100.00;98425.75;5089897;28;20458;-80
2023/09/27 00:17:03;;;;;;;14.87;13.27;;;13.70;99.90;;;13.47;100.00;98423.34;5091475;28;20930;-78
2023/09/27 00:19:31;;;;;;;15.57;13.43;;;13.70;99.90;;;13.39;100.00;98427.16;5097819;28;20463;-79
2023/09/27 00:21:58;;;;;;;17.07;14.67;;;13.60;99.90;;;13.48;100.00;98416.88;5106362;28;20975;-80
2023/09/27 00:24:25;;;;;;;17.70;13.93;;;13.70;99.90;;;13.50;100.00;98422.09;5102272;28;20516;-76
2023/09/27 00:26:54;;;;;;;17.93;13.60;;;13.70;99.90;;;13.40;100.00;98400.81;5092777;28;20931;-77
2023/09/27 00:29:21;;;;;;;16.90;13.60;;;13.70;99.90;;;13.28;100.00;98401.59;5088886;28;20455;-77
2023/09/27 00:31:48;;;;;;;15.67;13.83;;;13.60;99.90;;;13.30;100.00;98409.50;5085602;28;20479;-77
2023/09/27 00:34:15;;;;;;;15.13;13.17;;;13.50;99.90;;;13.36;100.00;98410.47;5088920;28;20465;-78
2023/09/27 00:36:43;;;;;;;15.40;13.77;;;13.60;99.90;;;13.15;100.00;98372.69;5089761;28;20448;-80
2023/09/27 00:39:10;;;;;;;15.57;13.03;;;13.60;99.90;;;13.34;100.00;98409.88;5085635;28;20975;-80
2023/09/27 00:41:37;;;;;;;16.63;13.73;;;13.60;99.90;;;13.30;100.00;98402.19;5102845;28;20451;-77
2023/09/27 00:44:06;;;;;;;17.07;13.57;;;13.50;99.90;;;13.27;100.00;98399.94;5066207;28;20504;-79
2023/09/27 00:46:34;;;;;;;16.67;13.50;;;13.50;99.90;;;13.26;100.00;98395.53;5090976;28;20454;-78
2023/09/27 00:49:01;;;;;;;18.87;13.80;;;13.60;99.90;;;12.94;100.00;98354.94;5089261;28;20443;-82
2023/09/27 00:51:30;;;;;;;15.33;13.70;;;13.50;99.90;;;13.13;100.00;98384.84;5073168;28;20491;-77
2023/09/27 00:53:58;;;;;;;15.30;13.70;;;13.50;99.90;;;13.04;100.00;98374.25;5083742;28;20448;-77
2023/09/27 00:56:27;;;;;;;15.83;13.47;;;13.50;99.90;;;13.07;100.00;98386.56;5088798;28;20451;-78
2023/09/27 00:58:55;;;;;;;15.90;13.60;;;13.40;99.90;;;13.08;100.00;98387.38;5090509;28;20455;-79
2023/09/27 01:01:26;;;;;;;14.87;13.30;;;13.30;99.90;;;13.10;100.00;98393.38;5089048;28;20846;-77
2023/09/27 01:03:54;;;;;;;15.10;13.50;;;13.30;99.90;;;13.06;100.00;98389.47;5083134;28;20459;-77
2023/09/27 01:06:21;;;;;;;15.20;12.83;;;13.40;99.90;;;13.01;100.00;98382.84;5090479;28;20445;-79
2023/09/27 01:08:49;;;;;;;16.47;13.70;;;13.40;99.90;;;13.10;100.00;98391.53;5086952;28;20462;-76
2023/09/27 01:11:17;;;;;;;15.00;13.10;;;13.40;99.90;;;12.78;100.00;98336.53;5085527;28;20454;-76
2023/09/27 01:13:44;;;;;;;15.00;13.27;;;13.40;99.90;;;13.05;100.00;98385.94;5081933;28;20536;-78
2023/09/27 01:16:12;;;;;;;14.50;13.00;;;13.40;99.90;;;13.04;100.00;98395.09;5089167;28;20499;-77
2023/09/27 01:18:42;;;;;;;16.03;13.53;;;13.40;99.90;;;12.72;100.00;98358.06;5088137;28;20709;-85
2023/09/27 01:21:09;;;;;;;15.37;13.27;;;13.30;99.90;;;12.77;100.00;98370.09;5083222;28;20459;-80
2023/09/27 01:23:39;;;;;;;17.13;14.17;;;13.30;99.90;;;12.91;100.00;98392.53;5090404;28;20910;-77
2023/09/27 01:26:11;;;;;;;15.17;13.00;;;13.30;99.90;;;12.80;100.00;98397.63;5095429;28;20431;-85
2023/09/27 01:28:41;;;;;;;14.70;13.20;;;13.20;99.90;;;12.79;100.00;98400.53;5084293;28;20452;-78
2023/09/27 01:31:08;;;;;;;13.93;12.40;;;13.10;99.90;;;12.72;100.00;98401.44;5085186;28;20517;-77
2023/09/27 01:33:35;;;;;;;12.77;11.47;;;13.10;99.90;;;12.36;100.00;98348.75;5088382;28;20470;-78
2023/09/27 01:36:03;;;;;;;23.00;14.40;;;13.00;99.90;;;12.65;100.00;98414.19;5089355;28;20450;-76
2023/09/27 01:38:31;;;;;;;21.23;13.33;;;13.00;99.90;;;12.60;100.00;98420.28;5085413;28;20468;-83
2023/09/27 01:40:59;;;;;;;17.20;13.37;;;13.00;99.90;;;12.52;100.00;98422.44;5083780;28;20873;-78
2023/09/27 01:43:27;;;;;;;14.77;13.27;;;12.90;99.90;;;12.44;100.00;98420.81;5085865;28;20876;-78
2023/09/27 01:45:54;;;;;;;18.50;12.67;;;12.70;99.90;;;12.52;100.00;98417.00;5086517;28;20463;-78
2023/09/27 01:48:22;;;;;;;23.43;13.37;;;12.80;99.90;;;12.55;100.00;98413.84;5082020;28;20470;-79
2023/09/27 01:50:49;;;;;;;21.77;13.37;;;12.80;99.90;;;12.50;100.00;98419.94;5089984;28;20458;-77
2023/09/27 01:53:17;;;;;;;17.40;12.70;;;12.80;99.90;;;12.41;100.00;98403.09;5088121;28;20489;-75
2023/09/27 01:55:44;;;;;;;29.07;14.60;;;12.80;99.90;;;12.42;100.00;98407.47;5099750;28;20605;-79
2023/09/27 01:58:13;;;;;;;21.97;15.07;;;12.80;99.90;;;12.39;100.00;98413.34;5089848;28;20480;-81
2023/09/27 02:00:40;;;;;;;21.03;12.70;;;12.70;99.90;;;12.11;100.00;98406.38;5090593;28;20461;-78
2023/09/27 02:03:08;;;;;;;23.60;14.00;;;12.60;99.90;;;12.20;100.00;98431.34;5091296;28;20466;-81
2023/09/27 02:05:35;;;;;;;24.67;14.53;;;12.50;99.90;;;12.26;100.00;98424.25;5087888;28;20450;-78
2023/09/27 02:08:02;;;;;;;27.83;14.70;;;12.50;99.90;;;12.35;100.00;98432.94;5091160;28;20465;-80
2023/09/27 02:10:29;;;;;;;23.10;15.40;;;12.60;99.90;;;12.37;100.00;98423.56;5093139;28;20497;-78
2023/09/27 02:12:57;;;;;;;22.53;15.77;;;12.70;99.90;;;12.32;100.00;98426.06;5091258;28;20482;-76
2023/09/27 02:15:25;;;;;;;25.37;15.03;;;12.60;99.90;;;12.33;100.00;98415.03;5089824;28;20547;-79
2023/09/27 02:17:53;;;;;;;19.50;13.90;;;12.70;99.90;;;12.28;100.00;98411.31;5095280;28;20438;-79
2023/09/27 02:20:20;;;;;;;22.23;14.17;;;12.60;99.90;;;12.21;100.00;98422.16;5095061;28;20459;-76
2023/09/27 02:22:49;;;;;;;22.13;13.33;;;12.50;99.90;;;12.11;100.00;98425.34;5090157;28;20542;-78
2023/09/27 02:25:17;;;;;;;26.03;14.43;;;12.40;99.90;;;11.99;100.00;98418.91;5120355;28;20497;-80
2023/09/27 02:27:45;;;;;;;20.90;14.40;;;12.30;99.90;;;11.90;100.00;98432.69;5111233;28;20456;-86
2023/09/27 02:30:12;;;;;;;27.63;14.30;;;12.20;99.90;;;11.44;100.00;98363.28;5100588;28;20466;-77
2023/09/27 02:32:42;;;;;;;20.03;14.57;;;12.20;99.90;;;11.86;100.00;98439.56;5094286;28;20485;-79
2023/09/27 02:35:10;;;;;;;21.17;14.87;;;12.20;99.90;;;11.89;100.00;98435.63;5094744;28;20473;-79
2023/09/27 02:37:37;;;;;;;15.70;12.80;;;12.10;99.90;;;12.09;100.00;98434.72;5088027;28;20465;-77
2023/09/27 02:40:11;;;;;;;27.87;13.23;;;12.30;99.90;;;11.98;100.00;98428.06;5091780;28;20852;-78
2023/09/27 02:42:40;;;;;;;18.33;13.00;;;12.30;99.90;;;11.29;100.00;98325.69;5091279;28;20459;-76
2023/09/27 02:45:09;;;;;;;19.87;12.97;;;12.20;99.90;;;12.07;100.00;98421.41;5089942;28;21043;-80
2023/09/27 02:47:38;;;;;;;18.27;13.20;;;12.30;99.90;;;12.00;100.00;98407.03;5090216;28;20875;-80
2023/09/27 02:50:11;;;;;;;18.40;14.57;;;12.40;99.90;;;12.01;100.00;98400.56;5094077;28;20453;-79
2023/09/27 02:52:39;;;;;;;18.50;14.33;;;12.40;99.90;;;11.94;100.00;98427.66;5091235;28;20513;-83
2023/09/27 02:55:08;;;;;;;19.67;13.63;;;12.30;99.90;;;11.78;100.00;98426.28;5090874;28;21085;-77
2023/09/27 02:57:37;;;;;;;19.53;13.10;;;12.20;99.90;;;11.84;100.00;98438.97;5084200;28;20971;-76
2023/09/27 03:00:08;;;;;;;18.00;13.47;;;12.10;99.90;;;11.71;100.00;98420.88;5090659;28;20487;-78
2023/09/27 03:02:37;;;;;;;19.40;13.37;;;12.10;99.90;;;11.75;100.00;98427.53;5080219;28;20458;-78
2023/09/27 03:05:07;;;;;;;17.80;13.80;;;12.10;99.90;;;11.87;100.00;98430.41;5090064;28;20453;-77
2023/09/27 03:07:35;;;;;;;17.53;13.50;;;12.20;99.90;;;11.51;100.00;98384.91;5086116;28;20465;-77
2023/09/27 03:10:04;;;;;;;17.63;12.67;;;12.20;99.90;;;11.90;100.00;98432.69;5087214;28;20461;-76
2023/09/27 03:12:31;;;;;;;16.27;13.90;;;12.20;99.90;;;12.03;100.00;98436.41;5084848;28;20462;-82
2023/09/27 03:14:58;;;;;;;16.60;14.20;;;12.30;99.90;;;11.98;100.00;98434.34;5088248;28;20452;-78
2023/09/27 03:17:28;;;;;;;18.30;13.37;;;12.30;99.90;;;11.36;100.00;98350.81;5089511;28;20953;-76
2023/09/27 03:19:58;;;;;;;18.10;14.60;;;12.20;99.90;;;11.77;100.00;98432.75;5087090;28;20519;-78
2023/09/27 03:22:26;;;;;;;17.23;12.30;;;12.10;99.90;;;11.75;100.00;98438.34;5089072;28;20548;-77
2023/09/27 03:24:54;;;;;;;15.30;12.30;;;12.00;99.90;;;11.72;100.00;98446.06;5106326;28;20453;-79
2023/09/27 03:27:21;;;;;;;15.43;11.80;;;12.00;99.90;;;11.65;100.00;98446.09;5092182;28;21102;-79
2023/09/27 03:29:48;;;;;;;16.73;13.40;;;12.00;99.90;;;11.62;100.00;98446.50;5089518;28;20470;-78
2023/09/27 03:32:17;;;;;;;15.40;12.93;;;11.90;99.90;;;11.64;100.00;98435.47;5091053;28;20462;-80
2023/09/27 03:34:44;;;;;;;18.30;13.20;;;11.90;99.90;;;11.69;100.00;98446.50;5091429;28;20478;-82
2023/09/27 03:37:11;;;;;;;21.27;13.93;;;12.00;99.90;;;11.12;100.00;98377.53;5081369;28;20787;-77
2023/09/27 03:39:40;;;;;;;15.83;12.20;;;11.90;99.90;;;11.59;100.00;98436.13;5089470;28;20448;-79
2023/09/27 03:42:07;;;;;;;14.03;11.20;;;12.00;99.90;;;11.58;100.00;98439.88;5092084;28;20496;-79
2023/09/27 03:44:34;;;;;;;19.67;12.67;;;11.90;99.90;;;11.49;100.00;98436.56;5092289;28;20459;-80
2023/09/27 03:47:02;;;;;;;14.77;12.73;;;11.80;99.90;;;11.38;100.00;98442.59;5088741;28;20521;-76
2023/09/27 03:49:29;;;;;;;17.33;13.20;;;11.70;99.90;;;11.36;100.00;98447.41;5093599;28;20443;-79
2023/09/27 03:51:56;;;;;;;15.07;12.50;;;11.70;99.90;;;11.33;100.00;98448.63;5093115;28;20481;-80
2023/09/27 03:54:23;;;;;;;17.10;13.60;;;11.60;99.90;;;11.50;100.00;98440.06;5093577;28;20969;-76
2023/09/27 03:56:54;;;;;;;13.70;12.20;;;11.70;99.90;;;11.71;100.00;98430.88;5091856;28;20463;-77
2023/09/27 03:59:21;;;;;;;14.70;13.10;;;11.90;99.90;;;11.72;100.00;98425.25;5083459;28;20463;-78
2023/09/27 04:01:49;;;;;;;16.17;12.80;;;12.00;99.90;;;11.52;100.00;98416.34;5091019;28;20495;-78
2023/09/27 04:04:16;;;;;;;16.00;12.60;;;11.90;99.90;;;11.56;100.00;98429.25;5070000;28;20454;-77
2023/09/27 04:06:43;;;;;;;16.40;12.33;;;11.90;99.90;;;11.77;100.00;98421.91;5092689;28;20493;-78
2023/09/27 04:09:11;;;;;;;15.77;13.00;;;12.00;99.90;;;11.24;100.00;98337.13;5084095;28;20451;-78
2023/09/27 04:11:39;;;;;;;16.90;13.50;;;12.00;99.90;;;11.85;100.00;98413.53;5091441;28;20950;-79
2023/09/27 04:14:11;;;;;;;17.90;14.00;;;12.20;99.90;;;11.74;100.00;98406.94;5082652;28;20477;-78
2023/09/27 04:16:38;;;;;;;15.20;13.53;;;12.20;99.90;;;11.90;100.00;98416.47;5100700;28;21001;-80
2023/09/27 04:19:06;;;;;;;20.33;13.50;;;12.20;99.90;;;11.87;100.00;98419.56;5086147;28;20453;-78
2023/09/27 04:21:33;;;;;;;20.47;13.97;;;12.20;99.90;;;11.90;100.00;98416.47;5088684;28;20902;-80
2023/09/27 04:24:03;;;;;;;16.87;12.70;;;12.20;99.90;;;11.91;100.00;98411.84;5089388;28;20480;-77
2023/09/27 04:26:31;;;;;;;17.90;13.93;;;12.20;99.90;;;11.91;100.00;98417.28;5090845;28;20481;-79
2023/09/27 04:29:00;;;;;;;19.43;13.77;;;12.20;99.90;;;11.90;100.00;98419.16;5088983;28;20791;-76
2023/09/27 04:31:28;;;;;;;18.53;13.13;;;12.20;99.90;;;11.68;100.00;98421.31;5100931;28;20543;-79
2023/09/27 04:33:56;;;;;;;17.77;14.40;;;12.20;99.90;;;11.70;100.00;98427.34;5107796;28;20472;-85
2023/09/27 04:36:24;;;;;;;21.13;13.37;;;12.10;99.90;;;11.74;100.00;98430.44;5069142;28;20441;-77
2023/09/27 04:38:51;;;;;;;18.40;14.10;;;12.10;99.90;;;11.66;100.00;98411.75;5082661;28;20451;-83
2023/09/27 04:41:21;;;;;;;16.80;13.40;;;12.10;99.90;;;11.69;100.00;98422.13;5086771;28;20479;-79
2023/09/27 04:43:48;;;;;;;17.63;13.50;;;12.10;99.90;;;11.43;100.00;98384.13;5083408;28;20455;-78
2023/09/27 04:46:16;;;;;;;18.23;13.17;;;12.10;99.90;;;11.51;100.00;98384.91;5089929;28;20462;-78
2023/09/27 04:48:46;;;;;;;16.50;13.90;;;12.10;99.90;;;11.63;100.00;98404.88;5089816;28;20869;-79
2023/09/27 04:51:14;;;;;;;18.60;13.67;;;12.10;99.90;;;11.50;100.00;98400.34;5088654;28;20450;-80
2023/09/27 04:53:42;;;;;;;17.73;14.87;;;12.00;99.90;;;11.51;100.00;98418.22;5088127;28;20478;-78
2023/09/27 04:56:11;;;;;;;15.10;13.50;;;12.00;99.90;;;11.55;100.00;98414.06;5084456;28;20821;-79
2023/09/27 04:58:40;;;;;;;15.30;13.53;;;12.00;99.90;;;11.65;100.00;98423.63;5085593;28;20868;-79
2023/09/27 05:01:07;;;;;;;16.27;13.50;;;12.00;99.90;;;11.92;100.00;98420.81;5084534;28;20477;-81
2023/09/27 05:03:37;;;;;;;15.10;13.60;;;12.10;99.90;;;12.13;100.00;98450.34;5086764;28;20498;-80
2023/09/27 05:06:06;;;;;;;14.60;13.20;;;12.50;99.90;;;11.61;100.00;98369.06;5087582;28;20472;-79
2023/09/27 05:08:34;;;;;;;14.27;12.77;;;12.40;99.90;;;11.57;100.00;98374.06;5081371;28;20464;-71
2023/09/27 05:11:01;;;;;;;16.97;13.17;;;12.30;99.90;;;11.93;100.00;98441.44;5082998;28;20467;-71
2023/09/27 05:13:28;;;;;;;17.17;14.20;;;12.30;99.90;;;11.56;100.00;98390.53;5085035;28;20470;-77
2023/09/27 05:15:55;;;;;;;16.83;13.80;;;12.30;99.90;;;11.93;100.00;98442.25;5085556;28;20520;-82
2023/09/27 05:18:23;;;;;;;17.60;13.10;;;12.30;99.90;;;11.89;100.00;98468.91;5078879;28;20456;-81
2023/09/27 05:20:50;;;;;;;17.23;14.50;;;12.30;99.90;;;11.96;100.00;98474.31;5078764;28;20462;-79
2023/09/27 05:23:18;;;;;;;21.13;15.57;;;12.30;99.90;;;12.06;100.00;98473.06;5065719;28;20450;-80
2023/09/27 05:25:46;;;;;;;22.37;15.00;;;12.30;99.90;;;12.27;100.00;98485.50;5097775;28;20475;-75
2023/09/27 05:28:13;;;;;;;27.60;15.40;;;12.50;99.90;;;12.26;100.00;98473.81;5089244;28;20507;-81
2023/09/27 05:30:40;;;;;;;20.57;14.37;;;12.50;99.90;;;12.32;100.00;98474.84;5088891;28;20461;-78
2023/09/27 05:33:07;;;;;;;18.53;14.80;;;12.50;99.90;;;12.12;100.00;98478.47;5085434;28;20440;-81
2023/09/27 05:35:34;;;;;;;20.40;14.57;;;12.50;99.90;;;11.79;100.00;98425.25;5087211;28;20866;-80
2023/09/27 05:38:03;;;;;;;20.50;15.70;;;12.50;99.90;;;12.23;100.00;98479.66;5088569;28;20545;-79
2023/09/27 05:40:31;;;;;;;20.27;14.53;;;12.50;99.90;;;12.18;100.00;98484.91;5080600;28;20457;-81
2023/09/27 05:42:59;;;;;;;21.40;15.40;;;12.50;99.90;;;12.24;100.00;98491.34;5086393;28;20471;-81
2023/09/27 05:45:26;;;;;;;22.40;14.57;;;12.60;99.90;;;12.24;100.00;98492.16;5100307;28;20499;-80
2023/09/27 05:47:53;;;;;;;22.63;16.67;;;12.60;99.90;;;12.39;100.00;98491.91;5077152;28;20462;-81
2023/09/27 05:50:21;;;;;;;22.87;15.77;;;12.70;99.90;;;12.22;100.00;98477.19;5087143;28;20978;-77
2023/09/27 05:52:48;;;;;;;28.13;17.40;;;12.70;99.90;;;12.27;100.00;98494.44;5079894;28;21002;-75
2023/09/27 05:55:15;;;;;;;26.20;17.13;;;12.70;99.90;;;12.30;100.00;98482.34;5085944;28;20471;-76
2023/09/27 05:57:44;;;;;;;32.70;19.40;;;12.80;99.90;;;12.55;100.00;98498.69;5076610;28;20492;-75
2023/09/27 06:00:21;;;;;;;26.10;17.10;;;12.90;99.90;;;12.25;100.00;98457.78;5084316;28;20474;-81
2023/09/27 06:02:49;;;;;;;28.90;18.30;;;12.90;99.90;;;12.51;100.00;98512.88;5082656;28;20461;-77
2023/09/27 06:05:16;;;;;;;26.53;18.00;;;13.00;99.90;;;12.70;100.00;98516.53;5081926;28;20508;-79
2023/09/27 06:07:43;;;;;;;28.57;17.80;;;13.00;99.90;;;12.86;100.00;98526.88;5080294;28;20938;-78
2023/09/27 06:10:11;;;;;;;22.77;17.20;;;13.10;99.90;;;13.01;100.00;98523.88;5084779;28;20512;-77
2023/09/27 06:12:38;;;;;;;26.37;17.53;;;13.20;99.90;;;13.02;100.00;98506.56;5081100;28;20948;-81
2023/09/27 06:15:12;;;;;;;29.77;17.97;;;13.30;99.90;;;12.93;100.00;98520.59;5082719;28;20610;-78
2023/09/27 06:17:39;;;;;;;29.00;16.63;;;13.30;99.90;;;13.08;100.00;98523.00;5087563;28;20441;-79
2023/09/27 06:20:11;;;;;;;24.27;17.93;;;13.40;99.90;;;13.16;100.00;98541.72;5080524;28;20475;-76
2023/09/27 06:22:40;;;;;;;23.37;16.40;;;13.50;99.90;;;13.13;100.00;98531.31;5080475;28;20458;-79
2023/09/27 06:25:08;;;;;;;22.43;16.80;;;13.50;99.90;;;13.28;100.00;98549.97;5085070;28;20576;-77
2023/09/27 06:27:35;;;;;;;28.43;19.30;;;13.60;99.90;;;13.28;100.00;98550.81;5078631;28;20443;-77
2023/09/27 06:30:04;;;;;;;23.90;16.80;;;13.60;99.90;;;12.76;100.00;98466.91;5084042;28;20466;-83
2023/09/27 06:32:34;;;;;;;22.97;17.73;;;13.60;99.90;;;13.33;100.00;98552.84;5092419;28;20452;-80
2023/09/27 06:35:03;;;;;;;20.17;17.10;;;13.70;98.90;;;13.34;99.93;98548.28;5088673;28;20479;-83
2023/09/27 06:37:31;;;;;;;23.80;16.87;;;13.70;98.00;;;13.38;100.00;98541.34;5085490;28;20805;-74
2023/09/27 06:39:58;;;;;;;27.43;18.27;;;13.80;98.30;;;13.54;99.73;98535.41;5087039;28;20462;-79
2023/09/27 06:42:25;;;;;;;21.50;16.30;;;13.90;98.50;;;13.76;97.78;98554.00;5085996;28;20443;-78
2023/09/27 06:44:52;;;;;;;16.90;15.10;;;14.10;97.10;;;13.88;97.03;98563.09;5090719;28;20450;-78
2023/09/27 06:47:20;;;;;;;25.10;16.67;;;14.20;96.30;;;13.99;96.23;98556.09;5100257;28;20443;-76
2023/09/27 06:49:48;;;;;;;18.90;14.20;;;14.30;96.20;;;14.05;94.79;98561.66;5101137;28;20718;-72
2023/09/27 06:52:15;;;;;;;20.07;15.90;;;14.40;95.40;;;14.02;95.19;98560.22;5083745;28;20459;-79
2023/09/27 06:54:45;;;;;;;18.53;15.43;;;14.30;95.20;;;13.43;96.17;98514.41;5081435;28;20487;-77
2023/09/27 06:57:14;;;;;;;17.17;14.70;;;14.20;94.60;;;13.69;96.42;98554.06;5081800;28;20462;-78
2023/09/27 06:59:41;;;;;;;16.67;14.83;;;14.10;95.20;;;13.70;96.61;98547.59;5083989;28;20501;-80
2023/09/27 07:02:08;;;;;;;18.40;15.00;;;14.10;95.60;;;13.87;96.84;98547.00;5096390;28;20512;-75
2023/09/27 07:04:36;;;;;;;16.87;14.73;;;14.20;96.20;;;14.02;96.37;98543.91;5101576;28;20443;-75
2023/09/27 07:07:05;;;;;;;18.50;15.73;;;14.30;96.20;;;13.95;95.59;98554.03;5107913;28;20582;-73
2023/09/27 07:09:33;;;;;;;30.20;17.20;;;14.40;94.90;;;13.95;96.21;98549.44;5077267;28;20528;-80
2023/09/27 07:12:00;;;;;;;24.77;16.87;;;14.40;95.20;;;14.03;95.80;98542.91;5086990;28;20557;-80
2023/09/27 07:14:28;;;;;;;27.37;17.40;;;14.40;95.20;;;13.99;96.36;98547.94;5083848;28;20488;-79
2023/09/27 07:16:55;;;;;;;25.57;16.23;;;14.40;95.30;;;14.02;95.83;98533.06;5083547;28;20574;-78
2023/09/27 07:19:23;;;;;;;23.40;17.00;;;14.40;95.40;;;14.08;96.89;98536.75;5083518;28;20985;-78
2023/09/27 07:21:51;;;;;;;23.73;17.50;;;14.50;95.50;;;14.06;96.76;98541.59;5079870;28;20623;-78
2023/09/27 07:24:19;;;;;;;23.53;17.00;;;14.50;95.40;;;14.13;96.21;98540.47;5081306;28;20498;-79
2023/09/27 07:26:49;;;;;;;23.73;17.57;;;14.50;95.30;;;14.33;94.31;98541.31;5081518;28;20447;-74
2023/09/27 07:29:17;;;;;;;29.27;17.87;;;14.70;94.40;;;13.96;96.78;98534.81;5082278;28;20462;-77
2023/09/27 07:31:43;;;;;;;26.17;18.97;;;14.60;94.50;;;14.10;96.09;98537.38;5075443;28;21099;-78
2023/09/27 07:34:11;;;;;;;22.77;17.70;;;14.50;94.90;;;14.45;93.78;98540.31;5083614;28;20467;-78
2023/09/27 07:36:38;;;;;;;26.03;18.43;;;14.70;94.70;;;14.22;93.70;98542.91;5083625;28;20478;-82
2023/09/27 07:39:09;;;;;;;25.00;18.73;;;14.80;93.50;;;13.94;97.11;98544.22;5082554;28;20450;-78
2023/09/27 07:41:38;;;;;;;26.40;18.97;;;14.50;94.70;;;14.03;97.01;98535.56;5081219;28;20478;-81
2023/09/27 07:44:09;;;;;;;28.53;19.13;;;14.50;95.40;;;14.22;95.94;98538.28;5086340;28;20456;-79
2023/09/27 07:46:36;;;;;;;31.27;24.63;;;14.60;95.30;;;14.36;95.16;98543.56;5087704;28;20454;-75
2023/09/27 07:49:04;;;;;;;23.77;17.67;;;14.70;94.60;;;14.45;93.98;98537.59;5105138;28;21266;-76
2023/09/27 07:51:31;;;;;;;17.90;16.00;;;14.90;94.10;;;14.69;92.48;98542.31;5103432;28;20498;-74
2023/09/27 07:53:59;;;;;;;19.53;17.13;;;15.10;93.70;;;14.71;93.12;98530.19;5093638;28;20456;-78
2023/09/27 07:56:27;;;;;;;19.30;16.57;;;15.10;94.00;;;14.84;92.93;98518.28;5084370;28;20455;-81
2023/09/27 07:58:55;;;;;;;18.93;15.40;;;15.20;94.10;;;14.91;91.76;98523.63;5081589;28;20445;-84
2023/09/27 08:01:23;;;;;;;16.07;14.47;;;15.40;93.30;;;15.07;90.76;98515.88;5083131;28;20451;-77
2023/09/27 08:03:51;;;;;;;16.40;14.70;;;15.50;93.10;;;15.42;90.04;98515.13;5082771;28;20455;-82
2023/09/27 08:06:19;;;;;;;16.27;14.57;;;15.60;93.10;;;15.63;88.41;98508.28;5086097;28;20544;-83
2023/09/27 08:08:47;;;;;;;15.67;14.07;;;15.80;92.70;;;15.69;88.14;98522.81;5081460;28;20446;-82
2023/09/27 08:11:14;;;;;;;17.67;13.67;;;15.90;92.30;;;15.77;87.99;98525.19;5078642;28;20815;-80
2023/09/27 08:13:42;;;;;;;17.33;15.07;;;16.10;92.40;;;15.92;87.16;98521.19;5081523;28;20448;-83
2023/09/27 08:16:10;;;;;;;15.30;13.70;;;16.10;92.10;;;16.02;86.15;98504.25;5084496;28;20479;-82
2023/09/27 08:18:38;;;;;;;15.97;14.10;;;16.20;91.80;;;16.03;85.66;98514.91;5080404;28;20898;-75
2023/09/27 08:21:05;;;;;;;16.50;14.37;;;16.30;91.60;;;16.13;85.51;98517.03;5082620;28;20971;-78
2023/09/27 08:23:33;;;;;;;19.43;14.23;;;16.40;91.50;;;16.16;85.70;98513.00;5081579;28;20849;-76
2023/09/27 08:26:00;;;;;;;17.53;14.50;;;16.40;91.40;;;16.27;85.52;98523.03;5080957;28;20491;-83
2023/09/27 08:28:31;;;;;;;23.30;15.50;;;16.50;91.50;;;16.49;84.55;98520.47;5085195;28;20451;-80
2023/09/27 08:30:59;;;;;;;15.73;14.13;;;16.60;91.50;;;16.62;83.42;98519.41;5076155;28;20444;-80
2023/09/27 08:33:28;;;;;;;18.53;16.53;;;16.80;91.30;;;16.60;83.46;98510.59;5083547;28;20569;-79
2023/09/27 08:35:55;;;;;;;18.53;16.53;;;16.80;91.20;;;16.50;83.64;98524.06;5082946;28;23102;-83
2023/09/27 08:38:22;;;;;;;16.67;14.93;;;16.90;91.00;;;16.80;82.78;98523.00;5077905;28;21336;-80
2023/09/27 08:40:52;;;;;;;16.40;14.90;;;16.90;90.90;;;17.07;81.72;98525.16;5091873;28;20492;-82
2023/09/27 08:43:22;;;;;;;17.60;15.77;;;17.10;90.80;;;17.17;81.18;98536.25;5083212;28;20460;-82
2023/09/27 08:45:52;;;;;;;19.40;16.07;;;17.30;90.70;;;17.28;79.70;98518.97;5088068;28;20536;-79
2023/09/27 08:48:22;;;;;;;18.67;16.33;;;17.50;90.30;;;17.35;79.70;98515.22;5079939;28;20980;-76
2023/09/27 08:50:54;;;;;;;17.33;15.73;;;17.50;90.20;;;17.58;78.98;98508.78;5081328;28;20923;-72
2023/09/27 08:53:22;;;;;;;19.80;15.50;;;17.70;90.20;;;17.68;78.27;98503.47;5076036;28;20441;-74
2023/09/27 08:55:49;;;;;;;17.40;15.70;;;17.90;90.10;;;17.37;80.16;98508.47;5083309;28;20484;-74
2023/09/27 08:58:18;;;;;;;20.20;16.67;;;17.80;90.00;;;17.56;79.62;98500.84;5082537;28;21070;-73
2023/09/27 09:00:45;;;;;;;21.00;16.17;;;17.90;90.20;;;17.65;79.24;98503.13;5090070;28;20445;-73
2023/09/27 09:03:14;;;;;;;18.40;16.47;;;17.90;90.00;;;17.55;79.94;98499.19;5091614;28;20474;-72
2023/09/27 09:05:45;;;;;;;17.30;15.50;;;17.90;90.00;;;17.78;78.33;98502.78;5096309;28;20456;-73
2023/09/27 09:08:14;;;;;;;19.03;17.00;;;18.00;89.80;;;18.01;77.58;98495.47;5080075;28;20449;-72
2023/09/27 09:10:44;;;;;;;16.77;14.83;;;18.20;89.90;;;18.39;75.56;98484.78;5079258;28;20463;-73
2023/09/27 09:13:11;;;;;;;20.70;15.10;;;18.40;89.10;;;18.56;75.02;98495.63;5080306;28;20953;-72
2023/09/27 09:15:41;;;;;;;18.90;15.97;;;18.60;88.70;;;18.58;74.43;98473.47;5076399;28;20475;-72
2023/09/27 09:18:14;;;;;;;17.03;15.43;;;18.80;88.40;;;18.66;74.36;98500.41;5082063;28;20952;-72
2023/09/27 09:20:54;;;;;;;17.33;15.53;;;18.90;88.00;;;18.66;73.95;98490.25;5081905;28;20984;-71
2023/09/27 09:23:34;;;;;;;17.00;15.23;;;18.90;87.70;;;18.81;74.06;98486.03;5078104;28;20447;-71
2023/09/27 09:26:02;;;;;;;22.43;15.07;;;19.00;87.90;;;19.01;73.05;98503.78;5080957;28;20477;-71
2023/09/27 09:28:30;;;;;;;17.13;15.33;;;19.10;87.50;;;19.12;73.05;98486.34;5078724;28;20482;-71
2023/09/27 09:30:57;;;;;;;17.10;15.30;;;19.20;87.70;;;19.43;71.88;98494.03;5077190;28;20976;-71
2023/09/27 09:33:28;;;;;;;20.47;16.33;;;19.40;87.30;;;19.47;70.54;98481.44;5079089;28;20461;-71
2023/09/27 09:35:56;;;;;;;17.60;15.83;;;19.50;86.50;;;19.35;71.03;98474.22;5081175;28;20953;-71
2023/09/27 09:38:26;;;;;;;17.73;15.93;;;19.50;86.40;;;19.50;70.79;98476.28;5082238;28;20468;-72
2023/09/27 09:40:56;;;;;;;15.33;13.83;;;19.60;86.40;;;19.64;69.80;98482.09;5079179;28;20463;-72
2023/09/27 09:43:35;;;;;;;18.23;15.80;;;19.70;86.00;;;19.72;70.28;98477.25;5079873;28;20441;-72
2023/09/27 09:46:05;;;;;;;19.13;14.80;;;19.80;86.20;;;19.73;69.53;98485.19;5082641;28;20447;-72
2023/09/27 09:48:34;;;;;;;18.03;15.37;;;19.80;85.50;;;19.80;69.25;98483.03;5083739;28;20539;-71
2023/09/27 09:51:07;;;;;;;18.07;15.23;;;19.90;85.40;;;19.78;69.93;98460.53;5080610;28;20447;-72
2023/09/27 09:53:40;;;;;;;19.50;16.60;;;20.00;85.70;;;19.95;70.07;98476.03;5079693;28;20456;-72
2023/09/27 09:56:10;;;;;;;21.17;18.77;;;20.00;86.10;;;20.05;69.67;98478.81;5082089;28;20463;-72
2023/09/27 09:58:44;;;;;;;20.63;17.95;;;20.10;85.80;;;20.03;69.46;98471.97;5080491;28;20448;-74
2023/09/27 10:01:18;;;;;;;18.80;15.87;;;20.20;85.40;;;20.07;68.72;98473.06;5080938;28;20683;-70
2023/09/27 10:03:48;;;;;;;17.57;15.00;;;20.20;85.00;;;20.14;68.54;98468.16;5097176;28;20500;-69
2023/09/27 10:06:19;;;;;;;20.23;15.47;;;20.30;85.00;;;20.14;67.71;98426.19;5074714;28;20471;-69
2023/09/27 10:08:48;;;;;;;17.97;16.13;;;20.50;84.80;;;20.44;67.16;98466.63;5078275;28;20444;-68